createdAt,value
2018-04-19T00:00:58.680Z,3.30
2018-04-19T00:03:27.025Z,3.90
2018-04-19T00:05:55.537Z,4.17
2018-04-19T00:08:23.947Z,3.77
2018-04-19T00:10:52.329Z,3.43
2018-04-19T00:13:21.087Z,3.83
2018-04-19T00:15:49.250Z,2.60
2018-04-19T00:18:17.838Z,3.10
2018-04-19T00:20:46.284Z,4.40
2018-04-19T00:23:14.637Z,3.53
2018-04-19T00:25:43.076Z,4.10
2018-04-19T00:28:11.383Z,4.47
2018-04-19T00:30:39.626Z,4.10
2018-04-19T00:33:08.408Z,3.77
2018-04-19T00:35:37.163Z,4.70
2018-04-19T00:38:05.690Z,4.50
2018-04-19T00:40:33.961Z,4.20
2018-04-19T00:43:02.351Z,4.57
2018-04-19T00:45:30.706Z,4.10
2018-04-19T00:47:59.192Z,4.80
2018-04-19T00:50:27.709Z,4.70
2018-04-19T00:53:07.893Z,5.33
2018-04-19T00:55:37.423Z,4.30
2018-04-19T00:58:06.008Z,4.77
2018-04-19T01:00:34.560Z,3.80
2018-04-19T01:03:03.085Z,5.40
2018-04-19T01:05:31.957Z,5.00
2018-04-19T01:08:00.399Z,4.20
2018-04-19T01:10:28.630Z,4.30
2018-04-19T01:12:57.126Z,4.63
2018-04-19T01:15:25.751Z,4.03
2018-04-19T01:17:54.182Z,4.33
2018-04-19T01:20:22.840Z,5.43
2018-04-19T01:22:51.084Z,5.07
2018-04-19T01:25:19.676Z,4.43
2018-04-19T01:27:48.089Z,5.60
2018-04-19T01:30:16.374Z,4.80
2018-04-19T01:32:45.041Z,4.27
2018-04-19T01:35:13.830Z,5.43
2018-04-19T01:37:42.044Z,6.73
2018-04-19T01:40:10.719Z,5.23
2018-04-19T01:42:38.961Z,4.50
2018-04-19T01:45:07.249Z,5.10
2018-04-19T01:47:35.723Z,4.50
2018-04-19T01:50:03.907Z,5.03
2018-04-19T01:52:32.381Z,4.00
2018-04-19T01:55:01.163Z,7.43
2018-04-19T01:57:29.737Z,6.07
2018-04-19T01:59:58.133Z,5.60
2018-04-19T02:02:26.807Z,4.50
2018-04-19T02:04:55.121Z,5.37
2018-04-19T02:07:23.873Z,5.50
2018-04-19T02:09:52.141Z,5.10
2018-04-19T02:12:20.433Z,5.97
2018-04-19T02:14:48.962Z,5.03
2018-04-19T02:17:17.482Z,3.93
2018-04-19T02:19:45.847Z,4.23
2018-04-19T02:22:14.138Z,5.77
2018-04-19T02:24:42.336Z,5.60
2018-04-19T02:27:10.586Z,4.97
2018-04-19T02:29:39.376Z,6.43
2018-04-19T02:32:07.661Z,4.50
2018-04-19T02:34:36.234Z,5.80
2018-04-19T02:37:04.610Z,6.70
2018-04-19T02:39:32.997Z,4.90
2018-04-19T02:42:01.573Z,6.00
2018-04-19T02:44:30.002Z,5.20
2018-04-19T02:46:58.438Z,5.43
2018-04-19T02:49:27.140Z,5.17
2018-04-19T02:51:55.555Z,5.30
2018-04-19T02:54:24.038Z,6.27
2018-04-19T02:56:52.863Z,5.03
2018-04-19T02:59:22.537Z,5.33
2018-04-19T03:01:50.860Z,5.10
2018-04-19T03:04:19.186Z,4.63
2018-04-19T03:06:47.722Z,5.50
2018-04-19T03:09:16.605Z,5.07
2018-04-19T03:11:45.273Z,5.10
2018-04-19T03:14:13.372Z,3.60
2018-04-19T03:16:41.824Z,4.70
2018-04-19T03:19:10.276Z,5.50
2018-04-19T03:21:38.685Z,4.60
2018-04-19T03:24:06.979Z,5.87
2018-04-19T03:26:35.544Z,4.67
2018-04-19T03:29:04.137Z,4.20
2018-04-19T03:31:32.408Z,4.60
2018-04-19T03:34:00.897Z,4.80
2018-04-19T03:36:29.460Z,5.40
2018-04-19T03:38:57.830Z,4.63
2018-04-19T03:41:26.552Z,5.20
2018-04-19T03:43:55.222Z,5.23
2018-04-19T03:46:23.806Z,4.87
2018-04-19T03:48:52.072Z,4.93
2018-04-19T03:51:20.602Z,5.43
2018-04-19T03:53:48.731Z,5.37
2018-04-19T03:56:17.222Z,5.37
2018-04-19T03:58:45.996Z,4.40
2018-04-19T04:01:15.093Z,5.77
2018-04-19T04:03:43.572Z,5.67
2018-04-19T04:06:12.066Z,7.30
2018-04-19T04:08:40.634Z,6.90
2018-04-19T04:11:09.321Z,5.87
2018-04-19T04:13:37.726Z,6.30
2018-04-19T04:16:06.282Z,6.40
2018-04-19T04:18:46.309Z,5.97
2018-04-19T04:21:20.103Z,6.60
2018-04-19T04:23:54.360Z,13.20
2018-04-19T04:26:22.642Z,39.23
2018-04-19T04:28:51.837Z,13.23
2018-04-19T04:31:20.270Z,10.00
2018-04-19T04:33:49.006Z,8.33
2018-04-19T04:36:17.398Z,7.57
2018-04-19T04:38:45.663Z,7.57
2018-04-19T04:41:14.221Z,7.10
2018-04-19T04:43:42.437Z,8.03
2018-04-19T04:46:11.081Z,8.53
2018-04-19T04:48:39.429Z,8.23
2018-04-19T04:51:07.705Z,9.80
2018-04-19T04:53:36.288Z,9.43
2018-04-19T04:56:04.808Z,8.77
2018-04-19T04:58:33.282Z,10.13
2018-04-19T05:01:01.766Z,10.27
2018-04-19T05:03:29.944Z,8.60
2018-04-19T05:05:58.428Z,8.70
2018-04-19T05:08:26.766Z,8.70
2018-04-19T05:10:55.302Z,7.47
2018-04-19T05:13:23.721Z,7.33
2018-04-19T05:15:52.263Z,6.40
2018-04-19T05:18:20.513Z,10.07
2018-04-19T05:20:48.906Z,7.90
2018-04-19T05:23:17.061Z,7.37
2018-04-19T05:25:45.451Z,6.33
2018-04-19T05:28:13.932Z,5.53
2018-04-19T05:30:42.598Z,5.73
2018-04-19T05:33:10.894Z,6.90
2018-04-19T05:35:39.482Z,8.50
2018-04-19T05:38:08.047Z,7.63
2018-04-19T05:40:36.395Z,8.97
2018-04-19T05:43:04.908Z,10.07
2018-04-19T05:45:33.292Z,7.23
2018-04-19T05:48:01.933Z,7.87
2018-04-19T05:50:30.548Z,7.20
2018-04-19T05:52:59.234Z,9.43
2018-04-19T05:55:28.221Z,7.33
2018-04-19T05:57:56.696Z,6.73
2018-04-19T06:00:24.935Z,6.27
2018-04-19T06:02:53.780Z,6.53
2018-04-19T06:05:22.349Z,5.40
2018-04-19T06:07:50.789Z,6.57
2018-04-19T06:10:19.513Z,6.40
2018-04-19T06:12:48.092Z,6.77
2018-04-19T06:15:16.910Z,8.87
2018-04-19T06:17:45.435Z,8.20
2018-04-19T06:20:14.138Z,7.60
2018-04-19T06:22:42.857Z,8.70
2018-04-19T06:25:11.422Z,7.47
2018-04-19T06:27:39.832Z,7.07
2018-04-19T06:30:08.402Z,7.80
2018-04-19T06:32:36.971Z,13.20
2018-04-19T06:35:05.275Z,9.47
2018-04-19T06:37:33.637Z,6.50
2018-04-19T06:40:01.992Z,7.83
2018-04-19T06:42:30.395Z,6.60
2018-04-19T06:44:58.952Z,7.80
2018-04-19T06:47:27.538Z,6.77
2018-04-19T06:49:55.835Z,5.97
2018-04-19T06:52:24.403Z,6.67
2018-04-19T06:54:52.790Z,5.30
2018-04-19T06:57:21.181Z,5.63
2018-04-19T06:59:49.190Z,6.67
2018-04-19T07:02:17.712Z,6.13
2018-04-19T07:04:46.187Z,7.33
2018-04-19T07:07:14.144Z,7.50
2018-04-19T07:09:42.182Z,11.10
2018-04-19T07:12:10.259Z,11.37
2018-04-19T07:14:38.240Z,6.20
2018-04-19T07:17:06.582Z,5.50
2018-04-19T07:19:34.593Z,7.20
2018-04-19T07:22:02.581Z,6.17
2018-04-19T07:24:30.587Z,5.97
2018-04-19T07:26:58.653Z,5.33
2018-04-19T07:29:26.658Z,5.20
2018-04-19T07:31:54.825Z,6.37
2018-04-19T07:34:22.901Z,6.97
2018-04-19T07:36:50.978Z,6.20
2018-04-19T07:39:19.065Z,6.20
2018-04-19T07:41:47.062Z,6.13
2018-04-19T07:44:15.064Z,7.87
2018-04-19T07:46:43.140Z,5.50
2018-04-19T07:49:11.154Z,6.10
2018-04-19T07:51:39.249Z,5.50
2018-04-19T07:54:07.257Z,6.07
2018-04-19T07:56:35.236Z,5.83
2018-04-19T07:59:03.263Z,5.47
2018-04-19T08:01:31.278Z,5.90
2018-04-19T08:03:59.333Z,5.67
2018-04-19T08:06:27.387Z,6.80
2018-04-19T08:08:55.398Z,6.27
2018-04-19T08:11:23.414Z,5.50
2018-04-19T08:13:51.622Z,5.83
2018-04-19T08:16:19.666Z,5.60
2018-04-19T08:18:48.143Z,6.40
2018-04-19T08:21:16.189Z,7.90
2018-04-19T08:23:44.242Z,5.40
2018-04-19T08:26:12.372Z,5.80
2018-04-19T08:28:40.355Z,7.20
2018-04-19T08:31:08.438Z,5.93
2018-04-19T08:33:36.479Z,6.33
2018-04-19T08:36:04.461Z,6.37
2018-04-19T08:38:32.489Z,5.83
2018-04-19T08:41:00.473Z,5.93
2018-04-19T08:43:28.489Z,5.87
2018-04-19T08:45:56.590Z,6.33
2018-04-19T08:48:24.629Z,5.70
2018-04-19T08:50:53.244Z,6.00
2018-04-19T08:53:21.659Z,5.47
2018-04-19T08:55:49.710Z,6.20
2018-04-19T08:58:17.755Z,4.70
2018-04-19T09:00:45.783Z,4.80
2018-04-19T09:03:13.801Z,6.03
2018-04-19T09:05:41.827Z,12.10
2018-04-19T09:08:09.865Z,4.60
2018-04-19T09:10:37.913Z,6.03
2018-04-19T09:13:05.919Z,5.60
2018-04-19T09:15:33.891Z,5.73
2018-04-19T09:18:01.948Z,5.23
2018-04-19T09:20:30.305Z,5.30
2018-04-19T09:22:58.375Z,5.10
2018-04-19T09:25:26.403Z,4.90
2018-04-19T09:27:54.415Z,6.97
2018-04-19T09:30:23.144Z,5.97
2018-04-19T09:32:51.668Z,5.30
2018-04-19T09:35:19.955Z,6.00
2018-04-19T09:37:48.031Z,5.30
2018-04-19T09:40:16.055Z,6.83
2018-04-19T09:42:44.019Z,6.37
2018-04-19T09:45:12.029Z,5.57
2018-04-19T09:47:40.009Z,7.57
2018-04-19T09:50:08.078Z,6.83
2018-04-19T09:52:36.088Z,5.40
2018-04-19T09:55:04.064Z,5.83
2018-04-19T09:57:32.047Z,6.17
2018-04-19T10:00:00.087Z,7.20
2018-04-19T10:02:29.012Z,6.20
2018-04-19T10:05:03.069Z,6.13
2018-04-19T10:07:31.078Z,5.80
2018-04-19T10:09:59.079Z,5.00
2018-04-19T10:12:27.123Z,4.87
2018-04-19T10:14:55.156Z,5.90
2018-04-19T10:17:23.213Z,6.23
2018-04-19T10:19:51.246Z,6.23
2018-04-19T10:22:19.732Z,6.10
2018-04-19T10:24:47.741Z,5.43
2018-04-19T10:27:15.747Z,5.27
2018-04-19T10:29:43.771Z,5.10
2018-04-19T10:32:11.777Z,7.83
2018-04-19T10:34:39.725Z,7.73
2018-04-19T10:37:07.757Z,14.10
2018-04-19T10:39:35.898Z,4.53
2018-04-19T10:42:04.065Z,4.83
2018-04-19T10:44:32.052Z,6.17
2018-04-19T10:47:00.142Z,5.33
2018-04-19T10:49:28.131Z,5.00
2018-04-19T10:51:56.203Z,4.93
2018-04-19T10:54:24.132Z,6.10
2018-04-19T10:56:52.151Z,5.40
2018-04-19T10:59:20.282Z,4.70
2018-04-19T11:01:48.342Z,6.57
2018-04-19T11:04:16.340Z,5.17
2018-04-19T11:06:44.402Z,5.07
2018-04-19T11:09:12.425Z,5.53
2018-04-19T11:11:40.421Z,5.90
2018-04-19T11:14:08.419Z,4.80
2018-04-19T11:16:36.436Z,4.57
2018-04-19T11:19:04.547Z,3.20
2018-04-19T11:21:32.469Z,4.80
2018-04-19T11:24:00.704Z,5.47
2018-04-19T11:26:28.744Z,5.27
2018-04-19T11:28:56.816Z,5.90
2018-04-19T11:31:24.849Z,4.13
2018-04-19T11:33:52.950Z,3.90
2018-04-19T11:36:20.970Z,3.40
2018-04-19T11:38:48.961Z,3.63
2018-04-19T11:41:17.025Z,3.13
2018-04-19T11:43:44.999Z,4.60
2018-04-19T11:46:12.991Z,4.77
2018-04-19T11:48:41.003Z,2.80
2018-04-19T11:51:09.037Z,3.17
2018-04-19T11:53:37.181Z,3.40
2018-04-19T11:56:05.204Z,5.07
2018-04-19T11:58:33.181Z,3.33
2018-04-19T12:01:01.237Z,3.13
2018-04-19T12:03:29.299Z,3.30
2018-04-19T12:05:57.347Z,5.40
2018-04-19T12:08:25.387Z,3.77
2018-04-19T12:10:53.459Z,4.97
2018-04-19T12:13:21.425Z,3.73
2018-04-19T12:15:49.528Z,4.40
2018-04-19T12:18:17.605Z,4.23
2018-04-19T12:20:45.678Z,3.90
2018-04-19T12:23:13.760Z,3.80
2018-04-19T12:25:41.817Z,4.37
2018-04-19T12:28:09.783Z,5.03
2018-04-19T12:30:37.790Z,4.60
2018-04-19T12:33:05.800Z,5.10
2018-04-19T12:35:33.901Z,4.77
2018-04-19T12:38:01.981Z,6.80
2018-04-19T12:40:29.949Z,4.00
2018-04-19T12:42:57.959Z,5.30
2018-04-19T12:45:25.971Z,4.37
2018-04-19T12:47:54.036Z,4.13
2018-04-19T12:50:22.059Z,5.00
2018-04-19T12:52:50.054Z,4.70
2018-04-19T12:55:18.084Z,4.23
2018-04-19T12:57:46.126Z,5.00
2018-04-19T13:00:14.176Z,5.27
2018-04-19T13:02:42.197Z,3.23
2018-04-19T13:05:10.259Z,4.03
2018-04-19T13:07:38.290Z,4.20
2018-04-19T13:10:06.301Z,18.17
2018-04-19T13:12:34.265Z,5.20
2018-04-19T13:15:02.289Z,3.60
2018-04-19T13:17:30.281Z,3.80
2018-04-19T13:19:58.700Z,5.00
2018-04-19T13:22:27.080Z,3.77
2018-04-19T13:24:55.161Z,3.47
2018-04-19T13:27:23.517Z,3.23
2018-04-19T13:29:51.584Z,5.00
2018-04-19T13:32:19.602Z,5.40
2018-04-19T13:34:47.630Z,4.67
2018-04-19T13:37:15.675Z,4.80
2018-04-19T13:39:43.770Z,4.57
2018-04-19T13:42:11.832Z,4.93
2018-04-19T13:44:39.855Z,3.77
2018-04-19T13:47:07.921Z,4.03
2018-04-19T13:49:36.028Z,4.10
2018-04-19T13:52:04.125Z,4.83
2018-04-19T13:54:32.162Z,4.20
2018-04-19T13:57:00.229Z,3.53
2018-04-19T13:59:28.299Z,4.87
2018-04-19T14:01:56.404Z,5.13
2018-04-19T14:04:24.422Z,4.10
2018-04-19T14:06:52.390Z,4.13
2018-04-19T14:09:20.464Z,4.43
2018-04-19T14:11:48.459Z,3.97
2018-04-19T14:14:16.447Z,4.67
2018-04-19T14:16:44.520Z,4.70
2018-04-19T14:19:12.518Z,4.00
2018-04-19T14:21:40.542Z,4.43
2018-04-19T14:24:08.603Z,5.07
2018-04-19T14:26:36.638Z,4.20
2018-04-19T14:29:05.738Z,4.27
2018-04-19T14:31:33.748Z,4.97
2018-04-19T14:34:01.734Z,4.00
2018-04-19T14:36:29.952Z,4.83
2018-04-19T14:38:58.086Z,3.93
2018-04-19T14:41:27.230Z,4.00
2018-04-19T14:43:55.265Z,4.40
2018-04-19T14:46:23.357Z,5.03
2018-04-19T14:48:51.446Z,5.70
2018-04-19T14:51:19.547Z,5.80
2018-04-19T14:53:47.537Z,6.07
2018-04-19T14:56:15.557Z,6.10
2018-04-19T14:58:43.536Z,4.83
2018-04-19T15:01:11.918Z,4.93
2018-04-19T15:03:41.633Z,5.10
2018-04-19T15:06:09.641Z,4.50
2018-04-19T15:08:37.617Z,4.50
2018-04-19T15:11:05.573Z,4.47
2018-04-19T15:13:33.590Z,4.57
2018-04-19T15:16:01.651Z,4.70
2018-04-19T15:18:29.612Z,4.27
2018-04-19T15:20:57.586Z,6.87
2018-04-19T15:23:25.754Z,4.33
2018-04-19T15:25:53.989Z,3.80
2018-04-19T15:28:22.095Z,4.70
2018-04-19T15:30:50.460Z,3.70
2018-04-19T15:33:18.849Z,4.20
2018-04-19T15:35:47.575Z,5.43
2018-04-19T15:38:15.865Z,4.30
2018-04-19T15:40:44.214Z,3.90
2018-04-19T15:43:12.248Z,4.30
2018-04-19T15:45:40.294Z,5.50
2018-04-19T15:48:08.579Z,4.90
2018-04-19T15:50:37.122Z,4.27
2018-04-19T15:53:05.625Z,4.90
2018-04-19T15:55:33.947Z,6.17
2018-04-19T15:58:02.671Z,6.30
2018-04-19T16:00:30.691Z,6.43
2018-04-19T16:02:58.697Z,6.63
2018-04-19T16:05:26.754Z,7.40
2018-04-19T16:07:55.160Z,6.03
2018-04-19T16:10:23.629Z,8.63
2018-04-19T16:12:52.317Z,5.17
2018-04-19T16:15:20.779Z,5.80
2018-04-19T16:17:48.812Z,5.53
2018-04-19T16:20:16.825Z,4.37
2018-04-19T16:22:44.855Z,4.90
2018-04-19T16:25:12.943Z,6.60
2018-04-19T16:27:41.407Z,6.07
2018-04-19T16:30:09.756Z,6.80
2018-04-19T16:32:38.626Z,7.20
2018-04-19T16:35:07.414Z,6.17
2018-04-19T16:37:35.718Z,7.10
2018-04-19T16:40:05.200Z,6.33
2018-04-19T16:42:33.739Z,5.70
2018-04-19T16:45:02.129Z,7.47
2018-04-19T16:47:30.542Z,7.57
2018-04-19T16:49:59.151Z,9.03
2018-04-19T16:52:27.615Z,7.43
2018-04-19T16:54:55.971Z,6.53
2018-04-19T16:57:24.263Z,6.63
2018-04-19T16:59:52.673Z,6.60
2018-04-19T17:02:20.814Z,5.20
2018-04-19T17:04:49.273Z,5.77
2018-04-19T17:07:17.674Z,6.07
2018-04-19T17:09:46.034Z,5.63
2018-04-19T17:12:14.150Z,6.63
2018-04-19T17:14:42.688Z,7.53
2018-04-19T17:17:11.161Z,9.00
2018-04-19T17:19:39.685Z,9.87
2018-04-19T17:22:07.799Z,9.17
2018-04-19T17:24:35.811Z,9.77
2018-04-19T17:27:04.462Z,8.50
2018-04-19T17:29:32.790Z,8.60
2018-04-19T17:32:01.298Z,10.00
2018-04-19T17:34:30.216Z,9.80
2018-04-19T17:36:58.815Z,9.67
2018-04-19T17:39:27.355Z,9.03
2018-04-19T17:41:55.895Z,10.53
2018-04-19T17:44:24.499Z,10.10
2018-04-19T17:46:53.550Z,10.47
2018-04-19T17:49:21.859Z,10.77
2018-04-19T17:51:50.516Z,11.40
2018-04-19T17:54:18.485Z,9.30
2018-04-19T17:56:46.590Z,9.57
2018-04-19T17:59:14.991Z,11.43
2018-04-19T18:01:43.516Z,11.40
2018-04-19T18:04:11.885Z,13.97
2018-04-19T18:06:40.316Z,12.03
2018-04-19T18:09:08.866Z,12.60
2018-04-19T18:11:37.221Z,11.63
2018-04-19T18:14:05.722Z,10.70
2018-04-19T18:16:34.084Z,10.70
2018-04-19T18:19:02.665Z,8.87
2018-04-19T18:21:31.193Z,9.67
2018-04-19T18:23:59.625Z,10.30
2018-04-19T18:26:28.022Z,8.40
2018-04-19T18:28:56.198Z,9.00
2018-04-19T18:31:24.722Z,8.70
2018-04-19T18:33:53.337Z,9.73
2018-04-19T18:36:21.899Z,9.00
2018-04-19T18:38:50.417Z,7.23
2018-04-19T18:41:18.682Z,7.97
2018-04-19T18:43:47.432Z,8.33
2018-04-19T18:46:15.862Z,7.40
2018-04-19T18:48:44.434Z,7.83
2018-04-19T18:51:12.824Z,8.07
2018-04-19T18:53:41.291Z,7.63
2018-04-19T18:56:09.436Z,8.43
2018-04-19T18:58:38.199Z,8.57
2018-04-19T19:01:06.938Z,8.70
2018-04-19T19:03:35.363Z,9.33
2018-04-19T19:06:03.605Z,7.30
2018-04-19T19:08:32.171Z,7.93
2018-04-19T19:11:00.924Z,8.57
2018-04-19T19:13:29.581Z,9.83
2018-04-19T19:16:12.732Z,8.30
2018-04-19T19:18:52.864Z,8.50
2018-04-19T19:21:21.312Z,9.07
2018-04-19T19:23:49.851Z,8.83
2018-04-19T19:26:18.176Z,7.37
2018-04-19T19:28:46.604Z,8.20
2018-04-19T19:31:14.929Z,8.70
2018-04-19T19:33:43.597Z,7.57
2018-04-19T19:36:11.825Z,7.50
2018-04-19T19:38:40.379Z,8.03
2018-04-19T19:41:08.729Z,7.37
2018-04-19T19:43:36.953Z,8.20
2018-04-19T19:46:05.555Z,7.57
2018-04-19T19:48:34.137Z,7.10
2018-04-19T19:51:02.853Z,8.30
2018-04-19T19:53:31.338Z,8.70
2018-04-19T19:55:59.666Z,9.87
2018-04-19T19:58:27.894Z,8.23
2018-04-19T20:00:56.398Z,9.83
2018-04-19T20:03:25.050Z,8.00
2018-04-19T20:05:53.359Z,7.53
2018-04-19T20:08:22.098Z,9.53
2018-04-19T20:10:50.511Z,6.70
2018-04-19T20:13:18.864Z,7.13
2018-04-19T20:15:47.466Z,6.53
2018-04-19T20:18:15.631Z,7.83
2018-04-19T20:20:43.976Z,7.30
2018-04-19T20:23:12.711Z,8.43
2018-04-19T20:25:41.164Z,8.00
2018-04-19T20:28:09.352Z,8.67
2018-04-19T20:30:37.353Z,6.10
2018-04-19T20:33:05.413Z,6.50
2018-04-19T20:35:33.390Z,8.03
2018-04-19T20:38:02.045Z,6.67
2018-04-19T20:40:30.770Z,6.77
2018-04-19T20:42:59.475Z,8.00
2018-04-19T20:45:28.015Z,7.20
2018-04-19T20:47:56.366Z,7.40
2018-04-19T20:50:24.773Z,7.43
2018-04-19T20:52:53.542Z,6.40
2018-04-19T20:55:22.073Z,7.57
2018-04-19T20:57:50.509Z,6.50
2018-04-19T21:00:18.976Z,6.83
2018-04-19T21:02:47.522Z,7.43
2018-04-19T21:05:15.950Z,7.07
2018-04-19T21:07:44.804Z,7.43
2018-04-19T21:10:13.320Z,7.10
2018-04-19T21:12:41.615Z,7.40
2018-04-19T21:15:10.472Z,8.47
2018-04-19T21:17:39.019Z,8.37
2018-04-19T21:20:07.451Z,7.30
2018-04-19T21:22:36.117Z,7.10
2018-04-19T21:25:04.700Z,6.37
2018-04-19T21:27:33.222Z,6.10
2018-04-19T21:30:01.763Z,7.37
2018-04-19T21:32:29.976Z,6.87
2018-04-19T21:34:58.420Z,8.00
2018-04-19T21:37:26.811Z,9.13
2018-04-19T21:39:55.285Z,8.63
2018-04-19T21:42:23.822Z,7.47
2018-04-19T21:44:52.333Z,8.23
2018-04-19T21:47:20.828Z,7.67
2018-04-19T21:49:49.200Z,8.23
2018-04-19T21:52:17.552Z,7.43
2018-04-19T21:54:46.020Z,7.73
2018-04-19T21:57:14.451Z,8.30
2018-04-19T21:59:42.894Z,6.53
2018-04-19T22:02:11.410Z,7.50
2018-04-19T22:04:40.075Z,7.53
2018-04-19T22:07:08.323Z,7.40
2018-04-19T22:09:37.071Z,7.80
2018-04-19T22:12:05.618Z,8.00
2018-04-19T22:14:33.910Z,7.43
2018-04-19T22:17:02.581Z,8.00
2018-04-19T22:19:30.946Z,8.17
2018-04-19T22:21:59.349Z,6.93
2018-04-19T22:24:27.681Z,8.07
2018-04-19T22:26:56.105Z,7.27
2018-04-19T22:29:24.574Z,7.07
2018-04-19T22:31:52.866Z,7.10
2018-04-19T22:34:21.112Z,6.37
2018-04-19T22:36:49.418Z,6.97
2018-04-19T22:39:17.994Z,6.90
2018-04-19T22:41:46.665Z,6.10
2018-04-19T22:44:15.975Z,8.00
2018-04-19T22:46:44.651Z,8.80
2018-04-19T22:49:13.167Z,7.20
2018-04-19T22:51:41.310Z,6.17
2018-04-19T22:54:09.594Z,6.70
2018-04-19T22:56:38.173Z,6.70
2018-04-19T22:59:06.646Z,7.60
2018-04-19T23:01:34.925Z,7.23
2018-04-19T23:04:03.831Z,7.27
2018-04-19T23:06:32.500Z,6.90
2018-04-19T23:09:01.046Z,7.63
2018-04-19T23:11:29.782Z,7.40
2018-04-19T23:13:58.582Z,7.00
2018-04-19T23:16:26.826Z,5.90
2018-04-19T23:18:55.118Z,5.87
2018-04-19T23:21:23.582Z,7.30
2018-04-19T23:23:51.774Z,6.80
2018-04-19T23:26:20.877Z,6.50
2018-04-19T23:28:49.326Z,7.53
2018-04-19T23:31:17.776Z,7.53
2018-04-19T23:33:46.567Z,7.57
2018-04-19T23:36:14.881Z,7.40
2018-04-19T23:38:43.353Z,6.57
2018-04-19T23:41:11.840Z,6.50
2018-04-19T23:43:40.221Z,7.60
2018-04-19T23:46:08.556Z,7.47
2018-04-19T23:48:36.867Z,7.93
2018-04-19T23:51:05.258Z,6.90
2018-04-19T23:53:33.837Z,7.50
2018-04-19T23:56:02.515Z,7.03
2018-04-19T23:58:30.794Z,7.23
